sensor_id;sensor_type;location;lat;lon;timestamp;temperature;humidity
1702;DHT22;848;48.354;10.064;2024-02-16T00:02:21;5.70;99.90
1702;DHT22;848;48.354;10.064;2024-02-16T00:04:48;5.70;99.90
1702;DHT22;848;48.354;10.064;2024-02-16T00:07:16;5.70;99.90
1702;DHT22;848;48.354;10.064;2024-02-16T00:09:43;5.90;99.90
1702;DHT22;848;48.354;10.064;2024-02-16T00:12:10;5.80;99.90
1702;DHT22;848;48.354;10.064;2024-02-16T00:14:37;5.90;99.90
1702;DHT22;848;48.354;10.064;2024-02-16T00:17:04;5.90;99.90
1702;DHT22;848;48.354;10.064;2024-02-16T00:19:32;5.90;99.90
1702;DHT22;848;48.354;10.064;2024-02-16T00:21:59;5.90;99.90
1702;DHT22;848;48.354;10.064;2024-02-16T00:24:27;6.10;99.90
1702;DHT22;848;48.354;10.064;2024-02-16T00:26:57;6.10;99.90
1702;DHT22;848;48.354;10.064;2024-02-16T00:29:24;6.10;99.90
1702;DHT22;848;48.354;10.064;2024-02-16T00:31:51;6.20;99.90
1702;DHT22;848;48.354;10.064;2024-02-16T00:34:17;6.20;99.90
1702;DHT22;848;48.354;10.064;2024-02-16T00:36:44;6.30;99.90
1702;DHT22;848;48.354;10.064;2024-02-16T00:39:11;6.20;99.90
1702;DHT22;848;48.354;10.064;2024-02-16T00:41:39;6.30;99.90
1702;DHT22;848;48.354;10.064;2024-02-16T00:44:06;6.40;99.90
1702;DHT22;848;48.354;10.064;2024-02-16T00:46:35;6.40;99.90
1702;DHT22;848;48.354;10.064;2024-02-16T00:49:02;6.50;99.90
1702;DHT22;848;48.354;10.064;2024-02-16T00:51:29;6.40;99.90
1702;DHT22;848;48.354;10.064;2024-02-16T00:53:55;6.50;99.90
1702;DHT22;848;48.354;10.064;2024-02-16T00:56:23;6.40;99.90
1702;DHT22;848;48.354;10.064;2024-02-16T00:58:51;6.40;99.90
1702;DHT22;848;48.354;10.064;2024-02-16T01:01:21;6.50;99.90
1702;DHT22;848;48.354;10.064;2024-02-16T01:03:48;6.50;99.90
1702;DHT22;848;48.354;10.064;2024-02-16T01:06:15;6.50;99.90
1702;DHT22;848;48.354;10.064;2024-02-16T01:08:42;6.60;99.90
1702;DHT22;848;48.354;10.064;2024-02-16T01:11:09;6.50;99.90
1702;DHT22;848;48.354;10.064;2024-02-16T01:13:35;6.50;99.90
1702;DHT22;848;48.354;10.064;2024-02-16T01:16:04;6.60;99.90
1702;DHT22;848;48.354;10.064;2024-02-16T01:18:31;6.60;99.90
1702;DHT22;848;48.354;10.064;2024-02-16T01:20:58;6.50;99.90
1702;DHT22;848;48.354;10.064;2024-02-16T01:23:25;6.50;99.90
1702;DHT22;848;48.354;10.064;2024-02-16T01:25:52;6.60;99.90
1702;DHT22;848;48.354;10.064;2024-02-16T01:28:19;6.50;99.90
1702;DHT22;848;48.354;10.064;2024-02-16T01:30:46;6.60;99.90
1702;DHT22;848;48.354;10.064;2024-02-16T01:33:14;6.60;99.90
1702;DHT22;848;48.354;10.064;2024-02-16T01:35:41;6.60;99.90
1702;DHT22;848;48.354;10.064;2024-02-16T01:38:08;6.60;99.90
1702;DHT22;848;48.354;10.064;2024-02-16T01:40:34;6.60;99.90
1702;DHT22;848;48.354;10.064;2024-02-16T01:43:01;6.40;99.90
1702;DHT22;848;48.354;10.064;2024-02-16T01:45:28;6.40;99.90
1702;DHT22;848;48.354;10.064;2024-02-16T01:47:55;6.50;99.90
1702;DHT22;848;48.354;10.064;2024-02-16T01:50:24;6.40;99.90
1702;DHT22;848;48.354;10.064;2024-02-16T01:52:52;6.30;99.90
1702;DHT22;848;48.354;10.064;2024-02-16T01:55:22;6.30;99.90
1702;DHT22;848;48.354;10.064;2024-02-16T01:57:49;6.40;99.90
1702;DHT22;848;48.354;10.064;2024-02-16T02:00:16;6.50;99.90
1702;DHT22;848;48.354;10.064;2024-02-16T02:02:44;6.60;99.90
1702;DHT22;848;48.354;10.064;2024-02-16T02:05:12;6.40;99.90
1702;DHT22;848;48.354;10.064;2024-02-16T02:07:41;6.30;99.90
1702;DHT22;848;48.354;10.064;2024-02-16T02:10:09;6.40;99.90
1702;DHT22;848;48.354;10.064;2024-02-16T02:12:38;6.40;99.90
1702;DHT22;848;48.354;10.064;2024-02-16T02:15:05;6.40;99.90
1702;DHT22;848;48.354;10.064;2024-02-16T02:17:32;6.30;99.90
1702;DHT22;848;48.354;10.064;2024-02-16T02:20:00;6.30;99.90
1702;DHT22;848;48.354;10.064;2024-02-16T02:22:28;6.30;99.90
1702;DHT22;848;48.354;10.064;2024-02-16T02:24:55;6.30;99.90
1702;DHT22;848;48.354;10.064;2024-02-16T02:27:22;6.20;99.90
1702;DHT22;848;48.354;10.064;2024-02-16T02:29:48;6.20;99.90
1702;DHT22;848;48.354;10.064;2024-02-16T02:32:16;6.30;99.90
1702;DHT22;848;48.354;10.064;2024-02-16T02:34:43;6.20;99.90
1702;DHT22;848;48.354;10.064;2024-02-16T02:37:10;6.20;99.90
1702;DHT22;848;48.354;10.064;2024-02-16T02:39:39;6.20;99.90
1702;DHT22;848;48.354;10.064;2024-02-16T02:42:06;6.10;99.90
1702;DHT22;848;48.354;10.064;2024-02-16T02:44:33;6.10;99.90
1702;DHT22;848;48.354;10.064;2024-02-16T02:47:00;6.00;99.90
1702;DHT22;848;48.354;10.064;2024-02-16T02:49:28;6.00;99.90
1702;DHT22;848;48.354;10.064;2024-02-16T02:51:54;6.00;99.90
1702;DHT22;848;48.354;10.064;2024-02-16T02:54:21;6.00;99.90
1702;DHT22;848;48.354;10.064;2024-02-16T02:56:49;5.90;99.90
1702;DHT22;848;48.354;10.064;2024-02-16T02:59:16;5.80;99.90
1702;DHT22;848;48.354;10.064;2024-02-16T03:01:43;5.80;99.90
1702;DHT22;848;48.354;10.064;2024-02-16T03:04:11;5.80;99.90
1702;DHT22;848;48.354;10.064;2024-02-16T03:06:38;5.80;99.90
1702;DHT22;848;48.354;10.064;2024-02-16T03:09:04;5.80;99.90
1702;DHT22;848;48.354;10.064;2024-02-16T03:11:36;5.80;99.90
1702;DHT22;848;48.354;10.064;2024-02-16T03:14:04;5.90;99.90
1702;DHT22;848;48.354;10.064;2024-02-16T03:16:31;5.90;99.90
1702;DHT22;848;48.354;10.064;2024-02-16T03:18:58;5.90;99.90
1702;DHT22;848;48.354;10.064;2024-02-16T03:21:25;6.00;99.90
1702;DHT22;848;48.354;10.064;2024-02-16T03:23:52;5.90;99.90
1702;DHT22;848;48.354;10.064;2024-02-16T03:26:20;5.90;99.90
1702;DHT22;848;48.354;10.064;2024-02-16T03:28:47;5.90;99.90
1702;DHT22;848;48.354;10.064;2024-02-16T03:31:19;6.00;99.90
1702;DHT22;848;48.354;10.064;2024-02-16T03:33:47;5.80;99.90
1702;DHT22;848;48.354;10.064;2024-02-16T03:36:15;6.00;99.90
1702;DHT22;848;48.354;10.064;2024-02-16T03:38:42;5.80;99.90
1702;DHT22;848;48.354;10.064;2024-02-16T03:41:12;5.80;99.90
1702;DHT22;848;48.354;10.064;2024-02-16T03:43:41;5.80;99.90
1702;DHT22;848;48.354;10.064;2024-02-16T03:46:09;5.80;99.90
1702;DHT22;848;48.354;10.064;2024-02-16T03:48:37;5.80;99.90
1702;DHT22;848;48.354;10.064;2024-02-16T03:51:05;5.80;99.90
1702;DHT22;848;48.354;10.064;2024-02-16T03:53:32;5.80;99.90
1702;DHT22;848;48.354;10.064;2024-02-16T03:55:59;5.80;99.90
1702;DHT22;848;48.354;10.064;2024-02-16T03:58:26;5.90;99.90
1702;DHT22;848;48.354;10.064;2024-02-16T04:00:53;5.90;99.90
1702;DHT22;848;48.354;10.064;2024-02-16T04:03:20;5.90;99.90
1702;DHT22;848;48.354;10.064;2024-02-16T04:05:48;5.90;99.90
1702;DHT22;848;48.354;10.064;2024-02-16T04:08:15;5.90;99.90
1702;DHT22;848;48.354;10.064;2024-02-16T04:10:42;5.90;99.90
1702;DHT22;848;48.354;10.064;2024-02-16T04:13:09;5.90;99.90
1702;DHT22;848;48.354;10.064;2024-02-16T04:15:36;5.90;99.90
1702;DHT22;848;48.354;10.064;2024-02-16T04:18:04;5.90;99.90
1702;DHT22;848;48.354;10.064;2024-02-16T04:20:32;5.90;99.90
1702;DHT22;848;48.354;10.064;2024-02-16T04:23:00;5.90;99.90
1702;DHT22;848;48.354;10.064;2024-02-16T04:25:27;5.90;99.90
1702;DHT22;848;48.354;10.064;2024-02-16T04:27:54;5.90;99.90
1702;DHT22;848;48.354;10.064;2024-02-16T04:30:21;5.90;99.90
1702;DHT22;848;48.354;10.064;2024-02-16T04:32:48;5.90;99.90
1702;DHT22;848;48.354;10.064;2024-02-16T04:35:15;6.00;99.90
1702;DHT22;848;48.354;10.064;2024-02-16T04:37:42;6.00;99.90
1702;DHT22;848;48.354;10.064;2024-02-16T04:40:11;6.10;99.90
1702;DHT22;848;48.354;10.064;2024-02-16T04:42:38;6.00;99.90
1702;DHT22;848;48.354;10.064;2024-02-16T04:45:07;6.20;99.90
1702;DHT22;848;48.354;10.064;2024-02-16T04:47:34;6.10;99.90
1702;DHT22;848;48.354;10.064;2024-02-16T04:50:01;6.10;99.90
1702;DHT22;848;48.354;10.064;2024-02-16T04:52:31;6.10;99.90
1702;DHT22;848;48.354;10.064;2024-02-16T04:54:57;6.10;99.90
1702;DHT22;848;48.354;10.064;2024-02-16T04:57:26;6.30;99.90
1702;DHT22;848;48.354;10.064;2024-02-16T04:59:53;6.20;99.90
1702;DHT22;848;48.354;10.064;2024-02-16T05:02:20;6.20;99.90
1702;DHT22;848;48.354;10.064;2024-02-16T05:04:47;6.30;99.90
1702;DHT22;848;48.354;10.064;2024-02-16T05:07:13;6.30;99.90
1702;DHT22;848;48.354;10.064;2024-02-16T05:09:41;6.50;99.90
1702;DHT22;848;48.354;10.064;2024-02-16T05:12:08;6.50;99.90
1702;DHT22;848;48.354;10.064;2024-02-16T05:14:37;6.60;99.90
1702;DHT22;848;48.354;10.064;2024-02-16T05:17:03;6.50;99.90
1702;DHT22;848;48.354;10.064;2024-02-16T05:19:32;6.60;99.90
1702;DHT22;848;48.354;10.064;2024-02-16T05:22:01;6.60;99.90
1702;DHT22;848;48.354;10.064;2024-02-16T05:24:28;6.70;99.90
1702;DHT22;848;48.354;10.064;2024-02-16T05:26:54;6.80;99.90
1702;DHT22;848;48.354;10.064;2024-02-16T05:29:22;6.90;99.90
1702;DHT22;848;48.354;10.064;2024-02-16T05:31:52;6.90;99.90
1702;DHT22;848;48.354;10.064;2024-02-16T05:34:19;6.90;99.90
1702;DHT22;848;48.354;10.064;2024-02-16T05:36:46;6.90;99.90
1702;DHT22;848;48.354;10.064;2024-02-16T05:39:13;6.80;99.90
1702;DHT22;848;48.354;10.064;2024-02-16T05:41:52;6.80;99.90
1702;DHT22;848;48.354;10.064;2024-02-16T05:44:19;6.80;99.90
1702;DHT22;848;48.354;10.064;2024-02-16T05:46:46;6.70;99.90
1702;DHT22;848;48.354;10.064;2024-02-16T05:49:15;6.70;99.90
1702;DHT22;848;48.354;10.064;2024-02-16T05:51:42;6.60;99.90
1702;DHT22;848;48.354;10.064;2024-02-16T05:54:26;6.70;99.90
1702;DHT22;848;48.354;10.064;2024-02-16T05:56:53;6.50;99.90
1702;DHT22;848;48.354;10.064;2024-02-16T05:59:20;6.60;99.90
1702;DHT22;848;48.354;10.064;2024-02-16T06:01:47;6.70;99.90
1702;DHT22;848;48.354;10.064;2024-02-16T06:04:16;6.90;99.90
1702;DHT22;848;48.354;10.064;2024-02-16T06:06:43;6.90;99.90
1702;DHT22;848;48.354;10.064;2024-02-16T06:09:10;7.00;99.90
1702;DHT22;848;48.354;10.064;2024-02-16T06:11:37;7.00;99.90
1702;DHT22;848;48.354;10.064;2024-02-16T06:14:04;7.10;99.90
1702;DHT22;848;48.354;10.064;2024-02-16T06:16:31;7.10;99.90
1702;DHT22;848;48.354;10.064;2024-02-16T06:18:58;7.20;99.90
1702;DHT22;848;48.354;10.064;2024-02-16T06:21:27;7.10;99.90
1702;DHT22;848;48.354;10.064;2024-02-16T06:23:54;7.20;99.90
1702;DHT22;848;48.354;10.064;2024-02-16T06:26:21;7.20;99.90
1702;DHT22;848;48.354;10.064;2024-02-16T06:28:47;7.20;99.90
1702;DHT22;848;48.354;10.064;2024-02-16T06:31:14;7.20;99.90
1702;DHT22;848;48.354;10.064;2024-02-16T06:33:41;7.20;99.90
1702;DHT22;848;48.354;10.064;2024-02-16T06:36:08;7.20;99.90
1702;DHT22;848;48.354;10.064;2024-02-16T06:38:37;7.20;99.90
1702;DHT22;848;48.354;10.064;2024-02-16T06:41:04;7.40;99.90
1702;DHT22;848;48.354;10.064;2024-02-16T06:43:31;7.10;99.90
1702;DHT22;848;48.354;10.064;2024-02-16T06:45:58;7.40;99.90
1702;DHT22;848;48.354;10.064;2024-02-16T06:48:25;7.30;99.90
1702;DHT22;848;48.354;10.064;2024-02-16T06:50:51;7.30;99.90
1702;DHT22;848;48.354;10.064;2024-02-16T06:53:19;7.40;99.90
1702;DHT22;848;48.354;10.064;2024-02-16T06:55:47;7.40;99.90
1702;DHT22;848;48.354;10.064;2024-02-16T06:58:15;7.50;99.90
1702;DHT22;848;48.354;10.064;2024-02-16T07:00:42;7.60;99.90
1702;DHT22;848;48.354;10.064;2024-02-16T07:03:09;7.70;99.90
1702;DHT22;848;48.354;10.064;2024-02-16T07:05:36;7.70;99.90
1702;DHT22;848;48.354;10.064;2024-02-16T07:08:05;7.70;99.90
1702;DHT22;848;48.354;10.064;2024-02-16T07:10:33;7.70;99.90
1702;DHT22;848;48.354;10.064;2024-02-16T07:13:01;7.80;99.90
1702;DHT22;848;48.354;10.064;2024-02-16T07:15:29;7.80;99.90
1702;DHT22;848;48.354;10.064;2024-02-16T07:17:55;7.80;99.90
1702;DHT22;848;48.354;10.064;2024-02-16T07:20:23;7.70;99.90
1702;DHT22;848;48.354;10.064;2024-02-16T07:22:50;7.90;99.90
1702;DHT22;848;48.354;10.064;2024-02-16T07:25:17;8.00;99.90
1702;DHT22;848;48.354;10.064;2024-02-16T07:27:44;8.00;99.90
1702;DHT22;848;48.354;10.064;2024-02-16T07:30:13;8.00;99.90
1702;DHT22;848;48.354;10.064;2024-02-16T07:32:39;8.00;99.90
1702;DHT22;848;48.354;10.064;2024-02-16T07:35:06;8.00;99.90
1702;DHT22;848;48.354;10.064;2024-02-16T07:37:35;8.00;99.90
1702;DHT22;848;48.354;10.064;2024-02-16T07:40:03;8.10;99.90
1702;DHT22;848;48.354;10.064;2024-02-16T07:42:31;8.00;99.90
1702;DHT22;848;48.354;10.064;2024-02-16T07:44:58;7.50;99.90
1702;DHT22;848;48.354;10.064;2024-02-16T07:47:26;8.10;99.90
1702;DHT22;848;48.354;10.064;2024-02-16T07:49:54;8.10;99.90
1702;DHT22;848;48.354;10.064;2024-02-16T07:52:20;8.10;99.90
1702;DHT22;848;48.354;10.064;2024-02-16T07:54:47;8.10;99.90
1702;DHT22;848;48.354;10.064;2024-02-16T07:57:19;8.10;99.90
1702;DHT22;848;48.354;10.064;2024-02-16T07:59:46;8.30;99.90
1702;DHT22;848;48.354;10.064;2024-02-16T08:02:12;8.30;99.90
1702;DHT22;848;48.354;10.064;2024-02-16T08:04:42;8.30;99.90
1702;DHT22;848;48.354;10.064;2024-02-16T08:07:09;8.40;99.90
1702;DHT22;848;48.354;10.064;2024-02-16T08:09:36;8.60;99.90
1702;DHT22;848;48.354;10.064;2024-02-16T08:12:03;8.70;99.90
1702;DHT22;848;48.354;10.064;2024-02-16T08:14:32;8.80;99.90
1702;DHT22;848;48.354;10.064;2024-02-16T08:17:00;8.90;99.90
1702;DHT22;848;48.354;10.064;2024-02-16T08:19:34;9.00;99.90
1702;DHT22;848;48.354;10.064;2024-02-16T08:22:04;9.10;99.90
1702;DHT22;848;48.354;10.064;2024-02-16T08:24:32;9.20;99.90
1702;DHT22;848;48.354;10.064;2024-02-16T08:26:59;9.20;99.90
1702;DHT22;848;48.354;10.064;2024-02-16T08:29:26;9.20;99.90
1702;DHT22;848;48.354;10.064;2024-02-16T08:31:53;9.20;99.90
1702;DHT22;848;48.354;10.064;2024-02-16T08:34:20;9.20;99.90
1702;DHT22;848;48.354;10.064;2024-02-16T08:36:48;9.20;99.90
1702;DHT22;848;48.354;10.064;2024-02-16T08:39:17;9.10;99.90
1702;DHT22;848;48.354;10.064;2024-02-16T08:41:45;9.20;99.90
1702;DHT22;848;48.354;10.064;2024-02-16T08:44:14;9.20;99.90
1702;DHT22;848;48.354;10.064;2024-02-16T08:46:41;9.30;99.90
1702;DHT22;848;48.354;10.064;2024-02-16T08:49:07;9.30;99.90
1702;DHT22;848;48.354;10.064;2024-02-16T08:51:35;9.40;99.90
1702;DHT22;848;48.354;10.064;2024-02-16T08:54:02;9.40;99.90
1702;DHT22;848;48.354;10.064;2024-02-16T08:56:31;9.60;99.90
1702;DHT22;848;48.354;10.064;2024-02-16T08:59:00;9.70;99.90
1702;DHT22;848;48.354;10.064;2024-02-16T09:01:31;9.80;99.90
1702;DHT22;848;48.354;10.064;2024-02-16T09:03:58;9.90;99.90
1702;DHT22;848;48.354;10.064;2024-02-16T09:06:25;10.00;99.90
1702;DHT22;848;48.354;10.064;2024-02-16T09:08:52;10.20;99.90
1702;DHT22;848;48.354;10.064;2024-02-16T09:11:19;10.30;99.90
1702;DHT22;848;48.354;10.064;2024-02-16T09:13:47;10.40;99.90
1702;DHT22;848;48.354;10.064;2024-02-16T09:16:14;10.60;99.90
1702;DHT22;848;48.354;10.064;2024-02-16T09:18:41;10.70;99.90
1702;DHT22;848;48.354;10.064;2024-02-16T09:21:08;10.80;99.90
1702;DHT22;848;48.354;10.064;2024-02-16T09:23:36;10.90;99.90
1702;DHT22;848;48.354;10.064;2024-02-16T09:26:04;11.00;99.90
1702;DHT22;848;48.354;10.064;2024-02-16T09:28:31;11.10;99.90
1702;DHT22;848;48.354;10.064;2024-02-16T09:30:59;11.20;99.90
1702;DHT22;848;48.354;10.064;2024-02-16T09:33:26;11.20;99.90
1702;DHT22;848;48.354;10.064;2024-02-16T09:35:53;11.20;99.90
1702;DHT22;848;48.354;10.064;2024-02-16T09:38:24;11.20;99.90
1702;DHT22;848;48.354;10.064;2024-02-16T09:40:51;11.40;99.90
1702;DHT22;848;48.354;10.064;2024-02-16T09:43:29;11.30;99.90
1702;DHT22;848;48.354;10.064;2024-02-16T09:45:56;11.40;99.90
1702;DHT22;848;48.354;10.064;2024-02-16T09:48:26;11.50;99.90
1702;DHT22;848;48.354;10.064;2024-02-16T09:50:54;11.50;99.90
1702;DHT22;848;48.354;10.064;2024-02-16T09:53:24;11.50;99.90
1702;DHT22;848;48.354;10.064;2024-02-16T09:55:51;11.60;99.90
1702;DHT22;848;48.354;10.064;2024-02-16T09:58:18;11.60;99.90
1702;DHT22;848;48.354;10.064;2024-02-16T10:00:49;11.80;99.90
1702;DHT22;848;48.354;10.064;2024-02-16T10:03:25;11.90;99.90
1702;DHT22;848;48.354;10.064;2024-02-16T10:06:03;12.00;99.90
1702;DHT22;848;48.354;10.064;2024-02-16T10:08:30;12.10;99.90
1702;DHT22;848;48.354;10.064;2024-02-16T10:11:01;12.20;99.90
1702;DHT22;848;48.354;10.064;2024-02-16T10:13:28;12.30;99.90
1702;DHT22;848;48.354;10.064;2024-02-16T10:16:04;12.20;99.90
1702;DHT22;848;48.354;10.064;2024-02-16T10:18:33;12.20;99.90
1702;DHT22;848;48.354;10.064;2024-02-16T10:21:00;12.30;99.90
1702;DHT22;848;48.354;10.064;2024-02-16T10:23:26;12.30;99.90
1702;DHT22;848;48.354;10.064;2024-02-16T10:25:54;12.40;99.90
1702;DHT22;848;48.354;10.064;2024-02-16T10:28:21;12.30;99.90
1702;DHT22;848;48.354;10.064;2024-02-16T10:30:58;12.40;99.90
1702;DHT22;848;48.354;10.064;2024-02-16T10:33:27;12.50;99.90
1702;DHT22;848;48.354;10.064;2024-02-16T10:35:57;12.60;99.90
1702;DHT22;848;48.354;10.064;2024-02-16T10:38:25;12.70;99.90
1702;DHT22;848;48.354;10.064;2024-02-16T10:40:53;12.80;99.90
1702;DHT22;848;48.354;10.064;2024-02-16T10:43:21;12.80;99.90
1702;DHT22;848;48.354;10.064;2024-02-16T10:45:49;12.90;99.90
1702;DHT22;848;48.354;10.064;2024-02-16T10:48:18;12.90;99.90
1702;DHT22;848;48.354;10.064;2024-02-16T10:50:46;13.00;99.90
1702;DHT22;848;48.354;10.064;2024-02-16T10:53:22;13.20;99.90
1702;DHT22;848;48.354;10.064;2024-02-16T10:55:50;13.30;99.90
1702;DHT22;848;48.354;10.064;2024-02-16T10:58:17;13.40;99.90
1702;DHT22;848;48.354;10.064;2024-02-16T11:00:51;13.40;99.90
1702;DHT22;848;48.354;10.064;2024-02-16T11:03:22;13.50;99.90
1702;DHT22;848;48.354;10.064;2024-02-16T11:05:50;13.50;99.90
1702;DHT22;848;48.354;10.064;2024-02-16T11:08:19;13.60;99.90
1702;DHT22;848;48.354;10.064;2024-02-16T11:10:59;13.60;99.90
1702;DHT22;848;48.354;10.064;2024-02-16T11:13:27;13.50;99.90
1702;DHT22;848;48.354;10.064;2024-02-16T11:15:58;13.50;99.90
1702;DHT22;848;48.354;10.064;2024-02-16T11:18:26;13.50;99.90
1702;DHT22;848;48.354;10.064;2024-02-16T11:20:53;13.60;99.90
1702;DHT22;848;48.354;10.064;2024-02-16T11:23:29;13.60;99.90
1702;DHT22;848;48.354;10.064;2024-02-16T11:26:00;13.50;99.90
1702;DHT22;848;48.354;10.064;2024-02-16T11:28:28;13.60;99.90
1702;DHT22;848;48.354;10.064;2024-02-16T11:30:57;13.70;99.90
1702;DHT22;848;48.354;10.064;2024-02-16T11:33:24;13.80;99.90
1702;DHT22;848;48.354;10.064;2024-02-16T11:35:54;13.80;99.90
1702;DHT22;848;48.354;10.064;2024-02-16T11:38:21;13.90;99.90
1702;DHT22;848;48.354;10.064;2024-02-16T11:40:56;14.00;99.90
1702;DHT22;848;48.354;10.064;2024-02-16T11:43:24;14.10;99.90
1702;DHT22;848;48.354;10.064;2024-02-16T11:45:51;14.20;99.90
1702;DHT22;848;48.354;10.064;2024-02-16T11:48:21;14.30;99.90
1702;DHT22;848;48.354;10.064;2024-02-16T11:50:49;14.30;99.90
1702;DHT22;848;48.354;10.064;2024-02-16T11:53:17;14.30;99.90
1702;DHT22;848;48.354;10.064;2024-02-16T11:55:49;14.30;99.90
1702;DHT22;848;48.354;10.064;2024-02-16T11:58:18;14.30;99.90
1702;DHT22;848;48.354;10.064;2024-02-16T12:00:45;14.30;99.90
1702;DHT22;848;48.354;10.064;2024-02-16T12:03:18;14.10;99.90
1702;DHT22;848;48.354;10.064;2024-02-16T12:05:50;14.10;99.90
1702;DHT22;848;48.354;10.064;2024-02-16T12:08:17;14.00;99.90
1702;DHT22;848;48.354;10.064;2024-02-16T12:10:44;14.10;99.90
1702;DHT22;848;48.354;10.064;2024-02-16T12:13:11;14.10;99.90
1702;DHT22;848;48.354;10.064;2024-02-16T12:15:39;14.10;99.90
1702;DHT22;848;48.354;10.064;2024-02-16T12:18:06;14.00;99.90
1702;DHT22;848;48.354;10.064;2024-02-16T12:20:33;14.00;99.90
1702;DHT22;848;48.354;10.064;2024-02-16T12:23:10;14.00;99.90
1702;DHT22;848;48.354;10.064;2024-02-16T12:25:37;14.00;99.90
1702;DHT22;848;48.354;10.064;2024-02-16T12:28:04;13.90;99.90
1702;DHT22;848;48.354;10.064;2024-02-16T12:30:33;13.80;99.90
1702;DHT22;848;48.354;10.064;2024-02-16T12:33:01;13.90;99.90
1702;DHT22;848;48.354;10.064;2024-02-16T12:35:28;13.90;99.90
1702;DHT22;848;48.354;10.064;2024-02-16T12:37:55;13.90;99.90
1702;DHT22;848;48.354;10.064;2024-02-16T12:40:22;13.90;99.90
1702;DHT22;848;48.354;10.064;2024-02-16T12:42:49;13.90;99.90
1702;DHT22;848;48.354;10.064;2024-02-16T12:45:16;14.00;99.90
1702;DHT22;848;48.354;10.064;2024-02-16T12:47:43;14.10;99.90
1702;DHT22;848;48.354;10.064;2024-02-16T12:50:12;14.10;99.90
1702;DHT22;848;48.354;10.064;2024-02-16T12:52:39;14.20;99.90
1702;DHT22;848;48.354;10.064;2024-02-16T12:55:06;14.30;99.90
1702;DHT22;848;48.354;10.064;2024-02-16T12:57:35;14.40;99.90
1702;DHT22;848;48.354;10.064;2024-02-16T13:00:02;14.50;99.90
1702;DHT22;848;48.354;10.064;2024-02-16T13:02:29;14.60;99.90
1702;DHT22;848;48.354;10.064;2024-02-16T13:04:56;14.60;99.90
1702;DHT22;848;48.354;10.064;2024-02-16T13:07:25;14.60;99.90
1702;DHT22;848;48.354;10.064;2024-02-16T13:09:52;14.70;99.90
1702;DHT22;848;48.354;10.064;2024-02-16T13:12:19;14.70;99.90
1702;DHT22;848;48.354;10.064;2024-02-16T13:14:48;14.80;99.90
1702;DHT22;848;48.354;10.064;2024-02-16T13:17:15;14.80;99.90
1702;DHT22;848;48.354;10.064;2024-02-16T13:19:42;14.80;99.90
1702;DHT22;848;48.354;10.064;2024-02-16T13:22:09;14.90;99.90
1702;DHT22;848;48.354;10.064;2024-02-16T13:24:37;14.90;99.90
1702;DHT22;848;48.354;10.064;2024-02-16T13:27:04;14.90;99.90
1702;DHT22;848;48.354;10.064;2024-02-16T13:29:32;14.90;99.90
1702;DHT22;848;48.354;10.064;2024-02-16T13:31:59;14.90;99.90
1702;DHT22;848;48.354;10.064;2024-02-16T13:34:26;14.90;99.90
1702;DHT22;848;48.354;10.064;2024-02-16T13:36:53;14.90;99.90
1702;DHT22;848;48.354;10.064;2024-02-16T13:39:20;14.90;99.90
1702;DHT22;848;48.354;10.064;2024-02-16T13:41:49;14.90;99.90
1702;DHT22;848;48.354;10.064;2024-02-16T13:44:16;14.90;99.90
1702;DHT22;848;48.354;10.064;2024-02-16T13:46:45;14.90;99.90
1702;DHT22;848;48.354;10.064;2024-02-16T13:49:13;14.90;99.90
1702;DHT22;848;48.354;10.064;2024-02-16T13:51:40;14.90;99.90
1702;DHT22;848;48.354;10.064;2024-02-16T13:54:07;15.00;99.90
1702;DHT22;848;48.354;10.064;2024-02-16T13:56:34;15.10;99.90
1702;DHT22;848;48.354;10.064;2024-02-16T13:59:05;15.10;99.90
1702;DHT22;848;48.354;10.064;2024-02-16T14:01:33;15.20;99.90
1702;DHT22;848;48.354;10.064;2024-02-16T14:04:00;15.10;99.90
1702;DHT22;848;48.354;10.064;2024-02-16T14:06:28;15.10;99.90
1702;DHT22;848;48.354;10.064;2024-02-16T14:08:56;15.10;99.90
1702;DHT22;848;48.354;10.064;2024-02-16T14:11:23;15.10;99.90
1702;DHT22;848;48.354;10.064;2024-02-16T14:13:50;15.10;99.90
1702;DHT22;848;48.354;10.064;2024-02-16T14:16:18;15.00;99.90
1702;DHT22;848;48.354;10.064;2024-02-16T14:18:45;15.00;99.90
1702;DHT22;848;48.354;10.064;2024-02-16T14:21:13;15.00;99.90
1702;DHT22;848;48.354;10.064;2024-02-16T14:23:40;15.00;99.90
1702;DHT22;848;48.354;10.064;2024-02-16T14:26:07;15.00;99.90
1702;DHT22;848;48.354;10.064;2024-02-16T14:28:35;15.00;99.90
1702;DHT22;848;48.354;10.064;2024-02-16T14:31:02;14.90;99.90
1702;DHT22;848;48.354;10.064;2024-02-16T14:33:30;14.90;99.90
1702;DHT22;848;48.354;10.064;2024-02-16T14:35:57;14.90;99.90
1702;DHT22;848;48.354;10.064;2024-02-16T14:38:24;14.90;99.90
1702;DHT22;848;48.354;10.064;2024-02-16T14:40:51;14.90;99.90
1702;DHT22;848;48.354;10.064;2024-02-16T14:43:18;14.90;99.90
1702;DHT22;848;48.354;10.064;2024-02-16T14:45:45;14.90;99.90
1702;DHT22;848;48.354;10.064;2024-02-16T14:48:12;14.90;99.90
1702;DHT22;848;48.354;10.064;2024-02-16T14:50:40;14.90;99.90
1702;DHT22;848;48.354;10.064;2024-02-16T14:53:07;14.90;99.90
1702;DHT22;848;48.354;10.064;2024-02-16T14:55:34;14.80;99.90
1702;DHT22;848;48.354;10.064;2024-02-16T14:58:01;14.80;99.90
1702;DHT22;848;48.354;10.064;2024-02-16T15:00:29;14.80;99.90
1702;DHT22;848;48.354;10.064;2024-02-16T15:02:56;14.80;99.90
1702;DHT22;848;48.354;10.064;2024-02-16T15:05:23;14.70;99.90
1702;DHT22;848;48.354;10.064;2024-02-16T15:07:51;14.70;99.90
1702;DHT22;848;48.354;10.064;2024-02-16T15:10:18;14.70;99.90
1702;DHT22;848;48.354;10.064;2024-02-16T15:12:45;14.60;99.90
1702;DHT22;848;48.354;10.064;2024-02-16T15:15:12;14.50;99.90
1702;DHT22;848;48.354;10.064;2024-02-16T15:17:39;14.50;99.90
1702;DHT22;848;48.354;10.064;2024-02-16T15:20:07;14.50;99.90
1702;DHT22;848;48.354;10.064;2024-02-16T15:22:34;14.50;99.90
1702;DHT22;848;48.354;10.064;2024-02-16T15:25:02;14.50;99.90
1702;DHT22;848;48.354;10.064;2024-02-16T15:27:29;14.50;99.90
1702;DHT22;848;48.354;10.064;2024-02-16T15:29:56;14.50;99.90
1702;DHT22;848;48.354;10.064;2024-02-16T15:34:04;14.50;99.90
1702;DHT22;848;48.354;10.064;2024-02-16T15:36:32;14.40;99.90
1702;DHT22;848;48.354;10.064;2024-02-16T15:38:59;14.40;99.90
1702;DHT22;848;48.354;10.064;2024-02-16T15:41:26;14.40;99.90
1702;DHT22;848;48.354;10.064;2024-02-16T15:43:53;14.40;99.90
1702;DHT22;848;48.354;10.064;2024-02-16T15:46:20;14.40;99.90
1702;DHT22;848;48.354;10.064;2024-02-16T15:48:47;14.30;99.90
1702;DHT22;848;48.354;10.064;2024-02-16T15:51:17;14.30;99.90
1702;DHT22;848;48.354;10.064;2024-02-16T15:53:44;14.20;99.90
1702;DHT22;848;48.354;10.064;2024-02-16T15:56:11;14.20;99.90
1702;DHT22;848;48.354;10.064;2024-02-16T15:58:38;14.10;99.90
1702;DHT22;848;48.354;10.064;2024-02-16T16:01:05;14.10;99.90
1702;DHT22;848;48.354;10.064;2024-02-16T16:03:32;14.00;99.90
1702;DHT22;848;48.354;10.064;2024-02-16T16:05:59;14.00;99.90
1702;DHT22;848;48.354;10.064;2024-02-16T16:08:27;14.00;99.90
1702;DHT22;848;48.354;10.064;2024-02-16T16:10:54;13.90;99.90
1702;DHT22;848;48.354;10.064;2024-02-16T16:13:22;13.90;99.90
1702;DHT22;848;48.354;10.064;2024-02-16T16:15:49;13.80;99.90